Aeroporto :
LOGIN :

Iscrizione | Disclaimer

   EN    FR    IT 

 










Sommario :    VFR   VFR Marginale   IFR   IFR Intensivo   IFR Molto Intensivo
Visibilità : 
Base nubi : 
>= 8 km
>= 3000ft
5 / 8 km
1000 / 3000 ft
1500m / 5 km
500 / 1000 ft
800 / 1500m
200 / 500 ft
< 800m
< 200 ft
Simboli :   Temporali  Nebbia  Neve Forte  Precipitazioni Forti  Vento > 20 kt
SIGMETs :   Varie  Temporali  Ghiacco  Turbolenza  Onda orograficha  Ceneri Vulcaniche






- Altitudine del aeroporto : 648 ft
- Codice IATA : INI


LYNI - Nis Constantine

ULTIMO METAR :
  • 271200Z 32007KT 300V040 9999 BKN017 OVC023 04/01 Q1008 NOSIG

METARs OBSOLETI :
  • 271130Z 33008KT 300V010 9999 BKN013 OVC023 04/01 Q1008 NOSIG
  • 271100Z 32010KT 9999 BKN013 OVC020 04/00 Q1008 NOSIG
  • 271030Z 31014KT 9999 BKN013 OVC020 04/01 Q1008 NOSIG
  • 271000Z 30013KT 9999 BKN013 OVC023 04/01 Q1007 NOSIG
  • 270930Z 32010KT 9999 -RA BKN010 OVC017 03/01 Q1007 NOSIG

TAF TAF LYNI
Valido dal 27 a 12 ore il 28 a 12 ore UTC


271100Z 2712/2812 33012KT 9999 BKN017 OVC030 TX07/2712Z TN00/2806Z
BECMG 2717/2719 16005KT
BECMG 2810/2812 33016G30KT 5000 RA



MetMap, La meteo Aeronautica in un colpo d'occhio ! - Copyright ORBIFLY Dicembre 2007 - Disclaimer

ORBIFLY MET'MAP TEAM :

Programmazione e sviluppo : Alexandra Zaïnal
Concezione : Baudouin d'Aumeries
Aiuto per la programmazione : Marc-Olivier Méhu
Supporto tecnico e logistico : Manuel Goepfert
Aiuto per la traduzione : Arnaldo La Scala

Contatto : metmap@orbifly.com




FONTI E CREDITI :

   NOAA